Terminal Aerodrome Forecast
Issued by NWS Bismarck, ND

Home | Current Version | Previous Version | Graphics & Text | Print | Product List | Glossary On
Versions: 1 2 3 4 5 6 7 8 9 10 11 12 13 14 15 16 17 18 19 20 21 22 23 24 25
486
FTUS43 KBIS 272325
TAFBIS
TAF
KBIS 272325Z 2800/2824 30020G38KT P6SM VCTS BKN090CB
     FM280100 31009KT P6SM SCT250
     FM280300 29005KT P6SM FEW250
     FM281300 30010KT P6SM SKC
     FM281700 31018G28KT P6SM SCT070=

USA.gov is the U.S. government's official web portal to all federal, state and local government web resources and services.